This is the latest recevied weather packets stored in our database for station/object W1CAT. If no packets are shown the sender has not sent any weather packets the latest 10 day(s).
| Time | Temp. | Humidity | Pressure | Rain* | Wind** | Luminosity | Snow |
|---|---|---|---|---|---|---|---|
| 1777888288 | 1.67° C | 71% | - | 0 mm | - | - | - |
| 1777887985 | 1.67° C | 71% | - | 0 mm | - | - | - |
| 1777887682 | 2.22° C | 72% | - | 0 mm | - | - | - |
| 1777887379 | 2.22° C | 73% | - | 0 mm | - | - | - |
| 1777887074 | 1.67° C | 72% | - | 0 mm | - | - | - |
| 1777886771 | 1.67° C | 71% | - | 0 mm | - | - | - |
| 1777886467 | 1.67° C | 71% | - | 0 mm | - | - | - |
| 1777886165 | 1.67° C | 71% | - | 0 mm | - | - | - |
| 1777885862 | 1.67° C | 70% | - | 0 mm | - | - | - |
| 1777885561 | 1.67° C | 70% | - | 0 mm | - | - | - |
| 1777885259 | 2.22° C | 70% | - | 0 mm | - | - | - |
| 1777884956 | 2.22° C | 68% | - | 0 mm | - | - | - |
| 1777884652 | 1.67° C | 70% | - | 0 mm | - | - | - |
| 1777884349 | 1.67° C | 71% | - | 0 mm | - | - | - |
| 1777884045 | 2.22° C | 69% | - | 0 mm | - | - | - |
| 1777883743 | 2.22° C | 70% | - | 0 mm | - | - | - |
| 1777883439 | 1.67° C | 69% | - | 0 mm | - | - | - |
| 1777883135 | 2.22° C | 67% | - | 0 mm | - | - | - |
| 1777882832 | 2.22° C | 65% | - | 0 mm | - | - | - |
| 1777882529 | 2.78° C | 63% | - | 0 mm | - | - | - |
| 1777882225 | 2.78° C | 63% | - | 0 mm | - | - | - |
| 1777881922 | 2.22° C | 65% | - | 0 mm | - | - | - |
| 1777881619 | 1.67° C | 70% | - | 0 mm | - | - | - |
| 1777881315 | 1.11° C | 72% | - | 0 mm | - | - | - |
| 1777881012 | 1.11° C | 71% | - | 0 mm | - | - | - |
* Rain latest hour (hover to see other rain measurements)
** Current wind speed in m/s (hover to see current wind gust speed)